sensor_id;sensor_type;location;lat;lon;timestamp;P1;durP1;ratioP1;P2;durP2;ratioP2
18316;SDS011;9284;52.298;21.164;2024-01-30T00:00:18;37.20;;;16.07;;
18316;SDS011;9284;52.298;21.164;2024-01-30T00:02:47;33.37;;;15.30;;
18316;SDS011;9284;52.298;21.164;2024-01-30T00:05:16;36.30;;;16.23;;
18316;SDS011;9284;52.298;21.164;2024-01-30T00:07:44;35.30;;;16.47;;
18316;SDS011;9284;52.298;21.164;2024-01-30T00:10:14;38.43;;;15.30;;
18316;SDS011;9284;52.298;21.164;2024-01-30T00:12:42;36.77;;;16.10;;
18316;SDS011;9284;52.298;21.164;2024-01-30T00:15:10;37.63;;;16.60;;
18316;SDS011;9284;52.298;21.164;2024-01-30T00:17:39;32.43;;;16.37;;
18316;SDS011;9284;52.298;21.164;2024-01-30T00:20:07;37.80;;;17.27;;
18316;SDS011;9284;52.298;21.164;2024-01-30T00:22:36;35.60;;;15.30;;
18316;SDS011;9284;52.298;21.164;2024-01-30T00:25:04;40.03;;;15.97;;
18316;SDS011;9284;52.298;21.164;2024-01-30T00:27:34;35.60;;;15.83;;
18316;SDS011;9284;52.298;21.164;2024-01-30T00:30:03;39.97;;;17.23;;
18316;SDS011;9284;52.298;21.164;2024-01-30T00:32:32;41.87;;;16.80;;
18316;SDS011;9284;52.298;21.164;2024-01-30T00:35:00;36.17;;;17.40;;
18316;SDS011;9284;52.298;21.164;2024-01-30T00:37:29;39.70;;;16.20;;
18316;SDS011;9284;52.298;21.164;2024-01-30T00:39:58;36.43;;;16.97;;
18316;SDS011;9284;52.298;21.164;2024-01-30T00:42:26;35.47;;;16.53;;
18316;SDS011;9284;52.298;21.164;2024-01-30T00:44:56;45.03;;;17.47;;
18316;SDS011;9284;52.298;21.164;2024-01-30T00:47:24;40.07;;;16.63;;
18316;SDS011;9284;52.298;21.164;2024-01-30T00:49:52;40.70;;;17.07;;
18316;SDS011;9284;52.298;21.164;2024-01-30T00:52:21;35.43;;;16.10;;
18316;SDS011;9284;52.298;21.164;2024-01-30T00:54:49;35.80;;;17.63;;
18316;SDS011;9284;52.298;21.164;2024-01-30T00:57:17;36.43;;;16.67;;
18316;SDS011;9284;52.298;21.164;2024-01-30T00:59:46;37.83;;;17.40;;
18316;SDS011;9284;52.298;21.164;2024-01-30T01:02:15;44.00;;;17.53;;
18316;SDS011;9284;52.298;21.164;2024-01-30T01:04:44;40.00;;;18.27;;
18316;SDS011;9284;52.298;21.164;2024-01-30T01:07:12;39.03;;;17.53;;
18316;SDS011;9284;52.298;21.164;2024-01-30T01:09:41;38.23;;;17.77;;
18316;SDS011;9284;52.298;21.164;2024-01-30T01:12:09;39.33;;;17.90;;
18316;SDS011;9284;52.298;21.164;2024-01-30T01:14:37;38.80;;;16.70;;
18316;SDS011;9284;52.298;21.164;2024-01-30T01:17:06;38.47;;;18.07;;
18316;SDS011;9284;52.298;21.164;2024-01-30T01:19:35;36.03;;;16.30;;
18316;SDS011;9284;52.298;21.164;2024-01-30T01:22:04;39.07;;;17.20;;
18316;SDS011;9284;52.298;21.164;2024-01-30T01:24:32;33.40;;;16.23;;
18316;SDS011;9284;52.298;21.164;2024-01-30T01:27:00;34.87;;;16.20;;
18316;SDS011;9284;52.298;21.164;2024-01-30T01:29:29;38.13;;;17.03;;
18316;SDS011;9284;52.298;21.164;2024-01-30T01:31:57;34.73;;;16.47;;
18316;SDS011;9284;52.298;21.164;2024-01-30T01:34:26;38.93;;;17.03;;
18316;SDS011;9284;52.298;21.164;2024-01-30T01:36:57;37.63;;;17.07;;
18316;SDS011;9284;52.298;21.164;2024-01-30T01:39:26;34.83;;;16.20;;
18316;SDS011;9284;52.298;21.164;2024-01-30T01:41:54;39.07;;;16.87;;
18316;SDS011;9284;52.298;21.164;2024-01-30T01:44:23;39.27;;;17.60;;
18316;SDS011;9284;52.298;21.164;2024-01-30T01:46:51;37.83;;;16.20;;
18316;SDS011;9284;52.298;21.164;2024-01-30T01:49:22;37.27;;;17.13;;
18316;SDS011;9284;52.298;21.164;2024-01-30T01:51:51;39.83;;;16.23;;
18316;SDS011;9284;52.298;21.164;2024-01-30T01:54:25;44.33;;;17.67;;
18316;SDS011;9284;52.298;21.164;2024-01-30T01:56:54;37.20;;;17.90;;
18316;SDS011;9284;52.298;21.164;2024-01-30T01:59:22;42.83;;;17.13;;
18316;SDS011;9284;52.298;21.164;2024-01-30T02:01:52;39.10;;;17.87;;
18316;SDS011;9284;52.298;21.164;2024-01-30T02:04:23;40.80;;;16.50;;
18316;SDS011;9284;52.298;21.164;2024-01-30T02:06:51;38.23;;;17.47;;
18316;SDS011;9284;52.298;21.164;2024-01-30T02:09:20;40.43;;;17.60;;
18316;SDS011;9284;52.298;21.164;2024-01-30T02:11:49;39.30;;;18.23;;
18316;SDS011;9284;52.298;21.164;2024-01-30T02:14:18;42.90;;;17.53;;
18316;SDS011;9284;52.298;21.164;2024-01-30T02:16:46;40.37;;;15.97;;
18316;SDS011;9284;52.298;21.164;2024-01-30T02:19:14;42.00;;;18.13;;
18316;SDS011;9284;52.298;21.164;2024-01-30T02:21:44;35.33;;;17.03;;
18316;SDS011;9284;52.298;21.164;2024-01-30T02:24:13;38.80;;;17.53;;
18316;SDS011;9284;52.298;21.164;2024-01-30T02:26:42;36.70;;;16.90;;
18316;SDS011;9284;52.298;21.164;2024-01-30T02:29:11;39.77;;;17.70;;
18316;SDS011;9284;52.298;21.164;2024-01-30T02:31:39;40.67;;;17.30;;
18316;SDS011;9284;52.298;21.164;2024-01-30T02:34:07;42.33;;;16.83;;
18316;SDS011;9284;52.298;21.164;2024-01-30T02:36:36;47.80;;;18.43;;
18316;SDS011;9284;52.298;21.164;2024-01-30T02:39:06;42.23;;;16.73;;
18316;SDS011;9284;52.298;21.164;2024-01-30T02:41:34;37.00;;;17.43;;
18316;SDS011;9284;52.298;21.164;2024-01-30T02:44:02;41.37;;;18.20;;
18316;SDS011;9284;52.298;21.164;2024-01-30T02:46:31;42.03;;;17.87;;
18316;SDS011;9284;52.298;21.164;2024-01-30T02:49:00;37.63;;;17.67;;
18316;SDS011;9284;52.298;21.164;2024-01-30T02:51:28;44.20;;;17.33;;
18316;SDS011;9284;52.298;21.164;2024-01-30T02:53:56;37.57;;;17.10;;
18316;SDS011;9284;52.298;21.164;2024-01-30T02:56:26;41.57;;;17.77;;
18316;SDS011;9284;52.298;21.164;2024-01-30T02:58:54;48.00;;;18.90;;
18316;SDS011;9284;52.298;21.164;2024-01-30T03:01:23;41.20;;;18.47;;
18316;SDS011;9284;52.298;21.164;2024-01-30T03:03:51;43.63;;;18.97;;
18316;SDS011;9284;52.298;21.164;2024-01-30T03:06:20;45.30;;;18.33;;
18316;SDS011;9284;52.298;21.164;2024-01-30T03:08:49;45.33;;;18.90;;
18316;SDS011;9284;52.298;21.164;2024-01-30T03:11:17;45.53;;;18.53;;
18316;SDS011;9284;52.298;21.164;2024-01-30T03:13:47;42.63;;;17.87;;
18316;SDS011;9284;52.298;21.164;2024-01-30T03:16:15;37.23;;;17.30;;
18316;SDS011;9284;52.298;21.164;2024-01-30T03:18:43;40.70;;;18.07;;
18316;SDS011;9284;52.298;21.164;2024-01-30T03:21:12;40.47;;;18.43;;
18316;SDS011;9284;52.298;21.164;2024-01-30T03:23:40;40.17;;;17.57;;
18316;SDS011;9284;52.298;21.164;2024-01-30T03:26:09;46.77;;;18.03;;
18316;SDS011;9284;52.298;21.164;2024-01-30T03:28:39;38.30;;;17.63;;
18316;SDS011;9284;52.298;21.164;2024-01-30T03:31:08;42.07;;;17.83;;
18316;SDS011;9284;52.298;21.164;2024-01-30T03:33:37;41.23;;;17.93;;
18316;SDS011;9284;52.298;21.164;2024-01-30T03:36:06;41.27;;;18.63;;
18316;SDS011;9284;52.298;21.164;2024-01-30T03:38:35;46.60;;;18.27;;
18316;SDS011;9284;52.298;21.164;2024-01-30T03:41:07;37.63;;;17.63;;
18316;SDS011;9284;52.298;21.164;2024-01-30T03:43:35;39.73;;;16.80;;
18316;SDS011;9284;52.298;21.164;2024-01-30T03:46:04;41.33;;;18.43;;
18316;SDS011;9284;52.298;21.164;2024-01-30T03:48:33;42.23;;;19.10;;
18316;SDS011;9284;52.298;21.164;2024-01-30T03:51:02;46.13;;;19.13;;
18316;SDS011;9284;52.298;21.164;2024-01-30T03:53:30;37.63;;;17.67;;
18316;SDS011;9284;52.298;21.164;2024-01-30T03:55:58;40.83;;;17.73;;
18316;SDS011;9284;52.298;21.164;2024-01-30T03:58:27;40.23;;;18.10;;
18316;SDS011;9284;52.298;21.164;2024-01-30T04:00:55;44.80;;;18.23;;
18316;SDS011;9284;52.298;21.164;2024-01-30T04:03:23;37.97;;;17.67;;
18316;SDS011;9284;52.298;21.164;2024-01-30T04:05:53;45.00;;;17.50;;
18316;SDS011;9284;52.298;21.164;2024-01-30T04:08:22;45.23;;;18.37;;
18316;SDS011;9284;52.298;21.164;2024-01-30T04:10:50;43.17;;;19.67;;
18316;SDS011;9284;52.298;21.164;2024-01-30T04:13:18;41.10;;;18.17;;
18316;SDS011;9284;52.298;21.164;2024-01-30T04:15:46;45.93;;;19.03;;
18316;SDS011;9284;52.298;21.164;2024-01-30T04:18:15;47.93;;;19.33;;
18316;SDS011;9284;52.298;21.164;2024-01-30T04:20:43;39.67;;;18.30;;
18316;SDS011;9284;52.298;21.164;2024-01-30T04:23:14;40.77;;;18.93;;
18316;SDS011;9284;52.298;21.164;2024-01-30T04:25:42;47.70;;;19.30;;
18316;SDS011;9284;52.298;21.164;2024-01-30T04:28:11;42.80;;;18.57;;
18316;SDS011;9284;52.298;21.164;2024-01-30T04:30:39;42.80;;;18.63;;
18316;SDS011;9284;52.298;21.164;2024-01-30T04:33:08;49.77;;;19.77;;
18316;SDS011;9284;52.298;21.164;2024-01-30T04:35:36;42.00;;;18.57;;
18316;SDS011;9284;52.298;21.164;2024-01-30T04:38:04;41.60;;;18.63;;
18316;SDS011;9284;52.298;21.164;2024-01-30T04:40:34;40.60;;;18.47;;
18316;SDS011;9284;52.298;21.164;2024-01-30T04:43:02;47.40;;;19.67;;
18316;SDS011;9284;52.298;21.164;2024-01-30T04:45:31;42.70;;;19.17;;
18316;SDS011;9284;52.298;21.164;2024-01-30T04:47:59;46.80;;;19.13;;
18316;SDS011;9284;52.298;21.164;2024-01-30T04:50:27;45.57;;;19.27;;
18316;SDS011;9284;52.298;21.164;2024-01-30T04:52:56;49.90;;;20.23;;
18316;SDS011;9284;52.298;21.164;2024-01-30T04:55:24;43.20;;;19.13;;
18316;SDS011;9284;52.298;21.164;2024-01-30T04:57:54;45.40;;;19.00;;
18316;SDS011;9284;52.298;21.164;2024-01-30T05:00:22;43.93;;;19.07;;
18316;SDS011;9284;52.298;21.164;2024-01-30T05:02:51;43.10;;;19.73;;
18316;SDS011;9284;52.298;21.164;2024-01-30T05:05:19;41.77;;;17.47;;
18316;SDS011;9284;52.298;21.164;2024-01-30T05:07:48;42.47;;;18.53;;
18316;SDS011;9284;52.298;21.164;2024-01-30T05:10:16;39.53;;;18.23;;
18316;SDS011;9284;52.298;21.164;2024-01-30T05:12:45;46.63;;;18.80;;
18316;SDS011;9284;52.298;21.164;2024-01-30T05:15:15;42.10;;;20.17;;
18316;SDS011;9284;52.298;21.164;2024-01-30T05:17:43;44.70;;;19.57;;
18316;SDS011;9284;52.298;21.164;2024-01-30T05:20:12;42.67;;;19.37;;
18316;SDS011;9284;52.298;21.164;2024-01-30T05:22:40;45.00;;;19.57;;
18316;SDS011;9284;52.298;21.164;2024-01-30T05:25:12;40.97;;;18.70;;
18316;SDS011;9284;52.298;21.164;2024-01-30T05:27:40;45.93;;;19.90;;
18316;SDS011;9284;52.298;21.164;2024-01-30T05:30:09;43.33;;;18.77;;
18316;SDS011;9284;52.298;21.164;2024-01-30T05:32:39;43.40;;;18.37;;
18316;SDS011;9284;52.298;21.164;2024-01-30T05:35:07;44.90;;;19.73;;
18316;SDS011;9284;52.298;21.164;2024-01-30T05:37:36;44.17;;;19.50;;
18316;SDS011;9284;52.298;21.164;2024-01-30T05:40:04;43.40;;;19.60;;
18316;SDS011;9284;52.298;21.164;2024-01-30T05:42:35;39.97;;;18.80;;
18316;SDS011;9284;52.298;21.164;2024-01-30T05:45:04;48.67;;;19.37;;
18316;SDS011;9284;52.298;21.164;2024-01-30T05:47:33;49.57;;;20.60;;
18316;SDS011;9284;52.298;21.164;2024-01-30T05:50:03;47.57;;;20.37;;
18316;SDS011;9284;52.298;21.164;2024-01-30T05:52:33;45.07;;;19.67;;
18316;SDS011;9284;52.298;21.164;2024-01-30T05:55:01;45.00;;;20.50;;
18316;SDS011;9284;52.298;21.164;2024-01-30T05:57:30;46.37;;;20.33;;
18316;SDS011;9284;52.298;21.164;2024-01-30T05:59:58;43.57;;;18.80;;
18316;SDS011;9284;52.298;21.164;2024-01-30T06:02:30;42.73;;;18.40;;
18316;SDS011;9284;52.298;21.164;2024-01-30T06:04:58;44.33;;;19.17;;
18316;SDS011;9284;52.298;21.164;2024-01-30T06:07:28;46.60;;;20.40;;
18316;SDS011;9284;52.298;21.164;2024-01-30T06:10:02;43.43;;;19.60;;
18316;SDS011;9284;52.298;21.164;2024-01-30T06:12:30;43.03;;;18.57;;
18316;SDS011;9284;52.298;21.164;2024-01-30T06:14:59;48.10;;;19.60;;
18316;SDS011;9284;52.298;21.164;2024-01-30T06:17:27;41.93;;;18.63;;
18316;SDS011;9284;52.298;21.164;2024-01-30T06:19:55;44.93;;;19.23;;
18316;SDS011;9284;52.298;21.164;2024-01-30T06:22:24;42.57;;;19.53;;
18316;SDS011;9284;52.298;21.164;2024-01-30T06:24:53;46.00;;;18.00;;
18316;SDS011;9284;52.298;21.164;2024-01-30T06:27:22;44.63;;;19.40;;
18316;SDS011;9284;52.298;21.164;2024-01-30T06:29:50;41.93;;;19.37;;
18316;SDS011;9284;52.298;21.164;2024-01-30T06:32:18;43.90;;;19.53;;
18316;SDS011;9284;52.298;21.164;2024-01-30T06:34:46;45.00;;;19.20;;
18316;SDS011;9284;52.298;21.164;2024-01-30T06:37:15;45.97;;;20.53;;
18316;SDS011;9284;52.298;21.164;2024-01-30T06:39:43;50.37;;;20.27;;
18316;SDS011;9284;52.298;21.164;2024-01-30T06:42:13;42.83;;;19.33;;
18316;SDS011;9284;52.298;21.164;2024-01-30T06:44:41;38.80;;;17.97;;
18316;SDS011;9284;52.298;21.164;2024-01-30T06:47:09;42.03;;;18.30;;
18316;SDS011;9284;52.298;21.164;2024-01-30T06:49:38;42.63;;;20.00;;
18316;SDS011;9284;52.298;21.164;2024-01-30T06:52:08;43.73;;;19.10;;
18316;SDS011;9284;52.298;21.164;2024-01-30T06:54:37;42.63;;;18.03;;
18316;SDS011;9284;52.298;21.164;2024-01-30T06:57:06;44.30;;;18.93;;
18316;SDS011;9284;52.298;21.164;2024-01-30T06:59:39;44.13;;;18.47;;
18316;SDS011;9284;52.298;21.164;2024-01-30T07:02:11;39.50;;;17.77;;
18316;SDS011;9284;52.298;21.164;2024-01-30T07:04:39;41.60;;;18.03;;
18316;SDS011;9284;52.298;21.164;2024-01-30T07:07:13;46.60;;;19.67;;
18316;SDS011;9284;52.298;21.164;2024-01-30T07:09:42;43.90;;;19.30;;
18316;SDS011;9284;52.298;21.164;2024-01-30T07:12:11;45.77;;;19.00;;
18316;SDS011;9284;52.298;21.164;2024-01-30T07:14:41;42.43;;;18.17;;
18316;SDS011;9284;52.298;21.164;2024-01-30T07:17:09;39.77;;;18.53;;
18316;SDS011;9284;52.298;21.164;2024-01-30T07:19:37;43.73;;;19.33;;
18316;SDS011;9284;52.298;21.164;2024-01-30T07:22:06;46.70;;;19.03;;
18316;SDS011;9284;52.298;21.164;2024-01-30T07:24:34;45.50;;;18.20;;
18316;SDS011;9284;52.298;21.164;2024-01-30T07:27:03;43.67;;;18.77;;
18316;SDS011;9284;52.298;21.164;2024-01-30T07:29:32;44.43;;;17.80;;
18316;SDS011;9284;52.298;21.164;2024-01-30T07:32:01;43.13;;;18.13;;
18316;SDS011;9284;52.298;21.164;2024-01-30T07:34:30;43.77;;;18.33;;
18316;SDS011;9284;52.298;21.164;2024-01-30T07:37:07;39.77;;;18.07;;
18316;SDS011;9284;52.298;21.164;2024-01-30T07:39:36;40.03;;;18.40;;
18316;SDS011;9284;52.298;21.164;2024-01-30T07:42:04;42.17;;;17.70;;
18316;SDS011;9284;52.298;21.164;2024-01-30T07:44:33;40.53;;;17.37;;
18316;SDS011;9284;52.298;21.164;2024-01-30T07:47:04;39.60;;;17.40;;
18316;SDS011;9284;52.298;21.164;2024-01-30T07:49:33;44.10;;;17.83;;
18316;SDS011;9284;52.298;21.164;2024-01-30T07:52:02;33.97;;;16.30;;
18316;SDS011;9284;52.298;21.164;2024-01-30T07:54:31;38.47;;;16.83;;
18316;SDS011;9284;52.298;21.164;2024-01-30T07:57:00;37.27;;;16.77;;
18316;SDS011;9284;52.298;21.164;2024-01-30T07:59:29;42.40;;;16.87;;
18316;SDS011;9284;52.298;21.164;2024-01-30T08:01:57;37.80;;;17.20;;
18316;SDS011;9284;52.298;21.164;2024-01-30T08:04:27;37.87;;;16.63;;
18316;SDS011;9284;52.298;21.164;2024-01-30T08:06:55;38.63;;;16.03;;
18316;SDS011;9284;52.298;21.164;2024-01-30T08:09:24;33.83;;;15.97;;
18316;SDS011;9284;52.298;21.164;2024-01-30T08:11:52;36.67;;;17.23;;
18316;SDS011;9284;52.298;21.164;2024-01-30T08:14:20;34.30;;;16.43;;
18316;SDS011;9284;52.298;21.164;2024-01-30T08:16:49;37.40;;;16.03;;
18316;SDS011;9284;52.298;21.164;2024-01-30T08:19:17;38.57;;;17.67;;
18316;SDS011;9284;52.298;21.164;2024-01-30T08:21:47;35.00;;;16.30;;
18316;SDS011;9284;52.298;21.164;2024-01-30T08:24:15;41.17;;;17.40;;
18316;SDS011;9284;52.298;21.164;2024-01-30T08:26:43;40.97;;;16.90;;
18316;SDS011;9284;52.298;21.164;2024-01-30T08:29:12;34.97;;;16.07;;
18316;SDS011;9284;52.298;21.164;2024-01-30T08:31:41;37.17;;;16.10;;
18316;SDS011;9284;52.298;21.164;2024-01-30T08:34:09;34.07;;;15.63;;
18316;SDS011;9284;52.298;21.164;2024-01-30T08:36:37;38.10;;;16.13;;
18316;SDS011;9284;52.298;21.164;2024-01-30T08:39:07;35.70;;;15.77;;
18316;SDS011;9284;52.298;21.164;2024-01-30T08:41:35;39.70;;;15.87;;
18316;SDS011;9284;52.298;21.164;2024-01-30T08:44:04;31.13;;;14.70;;
18316;SDS011;9284;52.298;21.164;2024-01-30T08:46:32;38.03;;;17.07;;
18316;SDS011;9284;52.298;21.164;2024-01-30T08:49:01;33.93;;;15.73;;
18316;SDS011;9284;52.298;21.164;2024-01-30T08:51:30;37.73;;;15.63;;
18316;SDS011;9284;52.298;21.164;2024-01-30T08:53:59;35.23;;;14.80;;
18316;SDS011;9284;52.298;21.164;2024-01-30T08:56:29;30.77;;;14.43;;
18316;SDS011;9284;52.298;21.164;2024-01-30T08:58:57;33.03;;;15.23;;
18316;SDS011;9284;52.298;21.164;2024-01-30T09:01:25;33.33;;;15.17;;
18316;SDS011;9284;52.298;21.164;2024-01-30T09:03:54;35.57;;;15.90;;
18316;SDS011;9284;52.298;21.164;2024-01-30T09:06:22;31.17;;;14.87;;
18316;SDS011;9284;52.298;21.164;2024-01-30T09:08:53;36.65;;;15.68;;
18316;SDS011;9284;52.298;21.164;2024-01-30T09:11:21;32.97;;;14.40;;
18316;SDS011;9284;52.298;21.164;2024-01-30T09:13:51;35.85;;;15.32;;
18316;SDS011;9284;52.298;21.164;2024-01-30T09:16:19;31.13;;;14.17;;
18316;SDS011;9284;52.298;21.164;2024-01-30T09:18:47;32.60;;;15.77;;
18316;SDS011;9284;52.298;21.164;2024-01-30T09:21:16;32.17;;;14.60;;
18316;SDS011;9284;52.298;21.164;2024-01-30T09:23:44;28.43;;;14.40;;
18316;SDS011;9284;52.298;21.164;2024-01-30T09:26:12;33.70;;;14.70;;
18316;SDS011;9284;52.298;21.164;2024-01-30T09:28:41;34.78;;;14.90;;
18316;SDS011;9284;52.298;21.164;2024-01-30T09:31:11;33.45;;;14.32;;
18316;SDS011;9284;52.298;21.164;2024-01-30T09:33:39;30.25;;;14.43;;
18316;SDS011;9284;52.298;21.164;2024-01-30T09:36:08;31.75;;;13.27;;
18316;SDS011;9284;52.298;21.164;2024-01-30T09:38:36;33.60;;;14.45;;
18316;SDS011;9284;52.298;21.164;2024-01-30T09:41:05;35.08;;;15.95;;
18316;SDS011;9284;52.298;21.164;2024-01-30T09:43:37;30.23;;;13.07;;
18316;SDS011;9284;52.298;21.164;2024-01-30T09:46:06;29.50;;;13.73;;
18316;SDS011;9284;52.298;21.164;2024-01-30T09:48:41;28.55;;;13.68;;
18316;SDS011;9284;52.298;21.164;2024-01-30T09:51:09;32.90;;;14.50;;
18316;SDS011;9284;52.298;21.164;2024-01-30T09:53:39;27.85;;;13.45;;
18316;SDS011;9284;52.298;21.164;2024-01-30T09:56:09;27.20;;;12.23;;
18316;SDS011;9284;52.298;21.164;2024-01-30T09:58:38;30.30;;;12.95;;
18316;SDS011;9284;52.298;21.164;2024-01-30T10:01:07;31.65;;;14.38;;
18316;SDS011;9284;52.298;21.164;2024-01-30T10:03:35;28.95;;;13.35;;
18316;SDS011;9284;52.298;21.164;2024-01-30T10:06:06;28.35;;;13.70;;
18316;SDS011;9284;52.298;21.164;2024-01-30T10:08:35;31.95;;;13.50;;
18316;SDS011;9284;52.298;21.164;2024-01-30T10:11:04;31.00;;;14.35;;
18316;SDS011;9284;52.298;21.164;2024-01-30T10:13:33;34.88;;;13.30;;
18316;SDS011;9284;52.298;21.164;2024-01-30T10:16:01;28.33;;;13.32;;
18316;SDS011;9284;52.298;21.164;2024-01-30T10:18:32;30.15;;;12.70;;
18316;SDS011;9284;52.298;21.164;2024-01-30T10:21:01;27.02;;;13.05;;
18316;SDS011;9284;52.298;21.164;2024-01-30T10:23:30;30.63;;;12.77;;
18316;SDS011;9284;52.298;21.164;2024-01-30T10:26:02;29.42;;;13.15;;
18316;SDS011;9284;52.298;21.164;2024-01-30T10:28:31;29.40;;;13.20;;
18316;SDS011;9284;52.298;21.164;2024-01-30T10:30:59;28.42;;;13.38;;
18316;SDS011;9284;52.298;21.164;2024-01-30T10:33:32;29.65;;;12.40;;
18316;SDS011;9284;52.298;21.164;2024-01-30T10:36:02;28.95;;;12.38;;
18316;SDS011;9284;52.298;21.164;2024-01-30T10:38:33;26.25;;;12.73;;
18316;SDS011;9284;52.298;21.164;2024-01-30T10:41:01;30.42;;;14.07;;
18316;SDS011;9284;52.298;21.164;2024-01-30T10:43:31;28.50;;;11.52;;
18316;SDS011;9284;52.298;21.164;2024-01-30T10:46:04;29.45;;;13.00;;
18316;SDS011;9284;52.298;21.164;2024-01-30T10:48:40;28.58;;;12.63;;
18316;SDS011;9284;52.298;21.164;2024-01-30T10:51:12;26.83;;;12.70;;
18316;SDS011;9284;52.298;21.164;2024-01-30T10:53:43;25.73;;;11.80;;
18316;SDS011;9284;52.298;21.164;2024-01-30T10:56:15;22.73;;;11.77;;
18316;SDS011;9284;52.298;21.164;2024-01-30T10:58:44;24.52;;;10.95;;
18316;SDS011;9284;52.298;21.164;2024-01-30T11:01:13;26.25;;;11.65;;
18316;SDS011;9284;52.298;21.164;2024-01-30T11:03:42;22.38;;;11.18;;
18316;SDS011;9284;52.298;21.164;2024-01-30T11:06:11;24.13;;;11.02;;
18316;SDS011;9284;52.298;21.164;2024-01-30T11:08:40;26.42;;;11.23;;
18316;SDS011;9284;52.298;21.164;2024-01-30T11:11:10;23.30;;;10.35;;
18316;SDS011;9284;52.298;21.164;2024-01-30T11:13:43;20.02;;;10.43;;
18316;SDS011;9284;52.298;21.164;2024-01-30T11:16:11;25.55;;;11.25;;
18316;SDS011;9284;52.298;21.164;2024-01-30T11:18:40;22.08;;;9.75;;
18316;SDS011;9284;52.298;21.164;2024-01-30T11:21:09;23.02;;;11.10;;
18316;SDS011;9284;52.298;21.164;2024-01-30T11:23:43;24.23;;;10.70;;
18316;SDS011;9284;52.298;21.164;2024-01-30T11:26:11;22.98;;;10.55;;
18316;SDS011;9284;52.298;21.164;2024-01-30T11:28:39;22.02;;;10.10;;
18316;SDS011;9284;52.298;21.164;2024-01-30T11:31:08;19.75;;;9.70;;
18316;SDS011;9284;52.298;21.164;2024-01-30T11:33:38;22.65;;;10.40;;
18316;SDS011;9284;52.298;21.164;2024-01-30T11:36:07;23.55;;;10.95;;
18316;SDS011;9284;52.298;21.164;2024-01-30T11:38:36;21.85;;;11.50;;
18316;SDS011;9284;52.298;21.164;2024-01-30T11:41:08;22.30;;;10.90;;
18316;SDS011;9284;52.298;21.164;2024-01-30T11:43:37;23.77;;;11.20;;
18316;SDS011;9284;52.298;21.164;2024-01-30T11:46:05;21.25;;;10.48;;
18316;SDS011;9284;52.298;21.164;2024-01-30T11:48:34;22.85;;;10.82;;
18316;SDS011;9284;52.298;21.164;2024-01-30T11:51:03;20.95;;;10.40;;
18316;SDS011;9284;52.298;21.164;2024-01-30T11:53:32;23.40;;;11.00;;
18316;SDS011;9284;52.298;21.164;2024-01-30T11:56:00;18.92;;;9.68;;
18316;SDS011;9284;52.298;21.164;2024-01-30T11:58:30;23.77;;;10.50;;
18316;SDS011;9284;52.298;21.164;2024-01-30T12:00:59;22.48;;;10.98;;
18316;SDS011;9284;52.298;21.164;2024-01-30T12:03:27;26.38;;;11.20;;
18316;SDS011;9284;52.298;21.164;2024-01-30T12:05:56;25.30;;;10.90;;
18316;SDS011;9284;52.298;21.164;2024-01-30T12:08:26;21.05;;;11.02;;
18316;SDS011;9284;52.298;21.164;2024-01-30T12:10:55;27.67;;;10.82;;
18316;SDS011;9284;52.298;21.164;2024-01-30T12:13:25;22.08;;;11.27;;
18316;SDS011;9284;52.298;21.164;2024-01-30T12:16:00;22.38;;;10.50;;
18316;SDS011;9284;52.298;21.164;2024-01-30T12:18:29;22.80;;;10.07;;
18316;SDS011;9284;52.298;21.164;2024-01-30T12:20:57;21.92;;;10.52;;
18316;SDS011;9284;52.298;21.164;2024-01-30T12:23:27;23.20;;;10.25;;
18316;SDS011;9284;52.298;21.164;2024-01-30T12:25:56;19.38;;;9.95;;
18316;SDS011;9284;52.298;21.164;2024-01-30T12:28:25;19.52;;;10.23;;
18316;SDS011;9284;52.298;21.164;2024-01-30T12:30:55;27.17;;;10.73;;
18316;SDS011;9284;52.298;21.164;2024-01-30T12:33:26;20.45;;;9.98;;
18316;SDS011;9284;52.298;21.164;2024-01-30T12:35:56;21.92;;;9.35;;
18316;SDS011;9284;52.298;21.164;2024-01-30T12:38:29;20.27;;;9.27;;
18316;SDS011;9284;52.298;21.164;2024-01-30T12:40:58;20.98;;;10.32;;
18316;SDS011;9284;52.298;21.164;2024-01-30T12:43:27;25.73;;;10.18;;
18316;SDS011;9284;52.298;21.164;2024-01-30T12:46:04;21.13;;;10.15;;
18316;SDS011;9284;52.298;21.164;2024-01-30T12:48:34;20.88;;;9.95;;
18316;SDS011;9284;52.298;21.164;2024-01-30T12:51:03;24.48;;;10.35;;
18316;SDS011;9284;52.298;21.164;2024-01-30T12:53:32;18.92;;;9.75;;
18316;SDS011;9284;52.298;21.164;2024-01-30T12:56:00;21.80;;;10.38;;
18316;SDS011;9284;52.298;21.164;2024-01-30T12:58:29;22.08;;;10.55;;
18316;SDS011;9284;52.298;21.164;2024-01-30T13:00:57;20.50;;;9.75;;
18316;SDS011;9284;52.298;21.164;2024-01-30T13:03:25;19.98;;;9.45;;
18316;SDS011;9284;52.298;21.164;2024-01-30T13:05:56;21.67;;;9.70;;
18316;SDS011;9284;52.298;21.164;2024-01-30T13:08:24;24.08;;;11.43;;
18316;SDS011;9284;52.298;21.164;2024-01-30T13:10:53;24.27;;;10.85;;
18316;SDS011;9284;52.298;21.164;2024-01-30T13:13:21;23.75;;;11.52;;
18316;SDS011;9284;52.298;21.164;2024-01-30T13:15:50;28.58;;;11.95;;
18316;SDS011;9284;52.298;21.164;2024-01-30T13:18:18;31.90;;;11.70;;
18316;SDS011;9284;52.298;21.164;2024-01-30T13:20:47;27.65;;;12.52;;
18316;SDS011;9284;52.298;21.164;2024-01-30T13:23:16;25.23;;;11.43;;
18316;SDS011;9284;52.298;21.164;2024-01-30T13:25:45;34.75;;;11.60;;
18316;SDS011;9284;52.298;21.164;2024-01-30T13:28:13;23.38;;;10.05;;
18316;SDS011;9284;52.298;21.164;2024-01-30T13:30:42;25.25;;;10.32;;
18316;SDS011;9284;52.298;21.164;2024-01-30T13:33:10;21.20;;;10.65;;
18316;SDS011;9284;52.298;21.164;2024-01-30T13:35:39;22.75;;;10.65;;
18316;SDS011;9284;52.298;21.164;2024-01-30T13:38:07;20.42;;;10.38;;
18316;SDS011;9284;52.298;21.164;2024-01-30T13:40:38;19.00;;;9.80;;
18316;SDS011;9284;52.298;21.164;2024-01-30T13:43:06;22.13;;;9.90;;
18316;SDS011;9284;52.298;21.164;2024-01-30T13:45:34;25.90;;;10.55;;
18316;SDS011;9284;52.298;21.164;2024-01-30T13:48:03;21.42;;;10.40;;
18316;SDS011;9284;52.298;21.164;2024-01-30T13:50:31;19.33;;;9.25;;
18316;SDS011;9284;52.298;21.164;2024-01-30T13:53:01;25.20;;;11.13;;
18316;SDS011;9284;52.298;21.164;2024-01-30T13:55:30;21.17;;;10.63;;
18316;SDS011;9284;52.298;21.164;2024-01-30T13:58:00;21.55;;;10.70;;
18316;SDS011;9284;52.298;21.164;2024-01-30T14:00:29;24.52;;;11.30;;
18316;SDS011;9284;52.298;21.164;2024-01-30T14:02:57;19.17;;;10.00;;
18316;SDS011;9284;52.298;21.164;2024-01-30T14:05:26;23.75;;;11.40;;
18316;SDS011;9284;52.298;21.164;2024-01-30T14:07:55;21.92;;;9.82;;
18316;SDS011;9284;52.298;21.164;2024-01-30T14:10:25;21.95;;;9.88;;
18316;SDS011;9284;52.298;21.164;2024-01-30T14:12:53;24.00;;;9.98;;
18316;SDS011;9284;52.298;21.164;2024-01-30T14:15:24;23.30;;;10.52;;
18316;SDS011;9284;52.298;21.164;2024-01-30T14:17:55;25.85;;;13.57;;
18316;SDS011;9284;52.298;21.164;2024-01-30T14:20:25;29.65;;;13.52;;
18316;SDS011;9284;52.298;21.164;2024-01-30T14:22:54;25.17;;;11.38;;
18316;SDS011;9284;52.298;21.164;2024-01-30T14:25:23;30.23;;;12.18;;
18316;SDS011;9284;52.298;21.164;2024-01-30T14:27:52;26.58;;;10.77;;
18316;SDS011;9284;52.298;21.164;2024-01-30T14:30:20;27.85;;;11.85;;